createdAt,value
2022-12-11T00:00:49.558Z,80826.25
2022-12-11T00:02:23.162Z,80820.31
2022-12-11T00:03:56.704Z,80808.44
2022-12-11T00:05:30.559Z,80800.53
2022-12-11T00:07:04.628Z,80786.66
2022-12-11T00:08:38.337Z,80798.53
2022-12-11T00:10:11.646Z,80786.66
2022-12-11T00:11:46.121Z,80798.53
2022-12-11T00:13:19.763Z,80794.59
2022-12-11T00:14:53.354Z,80790.63
2022-12-11T00:16:30.140Z,80794.59
2022-12-11T00:18:03.462Z,80796.56
2022-12-11T00:19:36.900Z,80794.59
2022-12-11T00:21:14.343Z,80798.53
2022-12-11T00:22:48.050Z,80802.50
2022-12-11T00:24:21.867Z,80802.50
2022-12-11T00:25:58.562Z,80834.19
2022-12-11T00:27:31.844Z,80838.13
2022-12-11T00:29:08.759Z,80853.97
2022-12-11T00:30:43.388Z,80802.50
2022-12-11T00:32:17.207Z,80816.34
2022-12-11T00:33:51.798Z,80816.34
2022-12-11T00:35:25.940Z,80826.25
2022-12-11T00:36:59.683Z,80826.25
2022-12-11T00:38:33.358Z,80828.25
2022-12-11T00:40:07.638Z,80838.13
2022-12-11T00:41:40.930Z,80832.19
2022-12-11T00:43:15.601Z,80834.19
2022-12-11T00:44:49.484Z,80846.06
2022-12-11T00:46:22.812Z,80848.03
2022-12-11T00:47:56.531Z,80842.09
2022-12-11T00:49:30.384Z,80844.06
2022-12-11T00:51:03.992Z,80853.97
2022-12-11T00:52:37.644Z,80846.06
2022-12-11T00:54:11.552Z,80838.13
2022-12-11T00:55:45.057Z,80830.22
2022-12-11T00:57:18.938Z,80826.25
2022-12-11T00:58:52.952Z,80842.09
2022-12-11T01:00:26.324Z,80824.28
2022-12-11T01:01:59.901Z,80828.25
2022-12-11T01:03:33.537Z,80834.19
2022-12-11T01:05:07.532Z,80838.13
2022-12-11T01:06:41.206Z,80850.00
2022-12-11T01:08:17.197Z,80826.25
2022-12-11T01:10:09.327Z,80824.28
2022-12-11T01:11:44.360Z,80881.69
2022-12-11T01:13:18.180Z,80814.38
2022-12-11T01:14:51.991Z,80808.44
2022-12-11T01:16:25.347Z,80804.47
2022-12-11T01:17:59.045Z,80806.47
2022-12-11T01:19:33.720Z,80802.50
2022-12-11T01:21:13.687Z,80796.56
2022-12-11T01:22:47.415Z,80794.59
2022-12-11T01:24:24.325Z,80806.47
2022-12-11T01:25:57.750Z,80806.47
2022-12-11T01:27:31.689Z,80806.47
2022-12-11T01:29:05.259Z,80802.50
2022-12-11T01:30:39.011Z,80836.16
2022-12-11T01:32:12.780Z,80800.53
2022-12-11T01:33:46.676Z,80796.56
2022-12-11T01:35:23.611Z,80798.53
2022-12-11T01:36:57.698Z,80794.59
2022-12-11T01:38:31.349Z,80786.66
2022-12-11T01:40:07.071Z,80800.53
2022-12-11T01:41:40.605Z,80800.53
2022-12-11T01:43:14.234Z,80790.63
2022-12-11T01:44:47.791Z,80798.53
2022-12-11T01:46:21.428Z,80796.56
2022-12-11T01:48:11.689Z,80796.56
2022-12-11T01:49:49.622Z,80790.63
2022-12-11T01:51:24.917Z,80792.59
2022-12-11T01:52:58.595Z,80792.59
2022-12-11T01:54:32.610Z,80794.59
2022-12-11T01:56:08.945Z,80818.34
2022-12-11T01:57:45.813Z,80802.50
2022-12-11T01:59:24.956Z,80804.47
2022-12-11T02:00:59.198Z,80810.41
2022-12-11T02:02:34.848Z,80812.41
2022-12-11T02:04:10.086Z,80814.38
2022-12-11T02:05:43.824Z,80812.41
2022-12-11T02:07:17.546Z,80806.47
2022-12-11T02:08:51.245Z,80816.34
2022-12-11T02:10:36.440Z,80818.34
2022-12-11T02:12:39.847Z,80820.31
2022-12-11T02:14:25.906Z,80818.34
2022-12-11T02:16:21.963Z,80822.28
2022-12-11T02:18:13.457Z,80810.41
2022-12-11T02:19:58.404Z,80810.41
2022-12-11T02:21:46.196Z,80816.34
2022-12-11T02:23:44.490Z,80800.53
2022-12-11T02:25:44.641Z,80792.59
2022-12-11T02:27:28.158Z,80784.69
2022-12-11T02:29:14.115Z,80774.78
2022-12-11T02:30:53.022Z,80766.88
2022-12-11T02:32:34.714Z,80756.97
2022-12-11T02:34:13.757Z,80755.00
2022-12-11T02:35:49.495Z,80756.97
2022-12-11T02:37:27.458Z,80743.13
2022-12-11T02:39:03.680Z,80745.09
2022-12-11T02:40:44.380Z,80743.13
2022-12-11T02:42:20.546Z,80743.13
2022-12-11T02:43:56.407Z,80755.00
2022-12-11T02:45:31.751Z,80758.97
2022-12-11T02:47:08.979Z,80770.84
2022-12-11T02:48:43.586Z,80751.03
2022-12-11T02:50:21.408Z,80745.09
2022-12-11T02:51:57.531Z,80758.97
2022-12-11T02:53:33.613Z,80745.09
2022-12-11T02:55:09.638Z,80774.78
2022-12-11T02:56:59.302Z,80745.09
2022-12-11T02:58:37.590Z,80755.00
2022-12-11T03:00:12.906Z,80743.13
2022-12-11T03:01:47.674Z,80741.13
2022-12-11T03:03:22.336Z,80764.91
2022-12-11T03:04:58.297Z,80733.22
2022-12-11T03:06:40.459Z,80723.31
2022-12-11T03:08:19.087Z,80731.25
2022-12-11T03:09:53.517Z,80731.25
2022-12-11T03:11:27.565Z,80719.38
2022-12-11T03:13:02.012Z,80778.75
2022-12-11T03:14:36.687Z,80719.38
2022-12-11T03:16:23.837Z,80733.22
2022-12-11T03:18:18.349Z,80727.28
2022-12-11T03:20:08.929Z,80729.25
2022-12-11T03:22:04.151Z,80737.19
2022-12-11T03:24:21.447Z,80735.19
2022-12-11T03:26:00.104Z,80737.19
2022-12-11T03:27:59.576Z,80749.06
2022-12-11T03:29:40.098Z,80733.22
2022-12-11T03:31:24.263Z,80753.00
2022-12-11T03:33:04.759Z,80747.06
2022-12-11T03:34:46.338Z,80755.00
2022-12-11T03:36:26.001Z,80751.03
2022-12-11T03:38:03.604Z,80755.00
2022-12-11T03:39:43.930Z,80794.59
2022-12-11T03:41:20.664Z,80760.94
2022-12-11T03:42:57.379Z,80762.91
2022-12-11T03:44:36.686Z,80753.00
2022-12-11T03:46:12.730Z,80794.59
2022-12-11T03:47:47.743Z,80766.88
2022-12-11T03:49:25.422Z,80766.88
2022-12-11T03:51:01.308Z,80776.78
2022-12-11T03:52:40.962Z,80778.75
2022-12-11T03:54:18.414Z,80784.69
2022-12-11T03:55:52.526Z,80782.72
2022-12-11T03:57:31.549Z,80780.72
2022-12-11T03:59:05.497Z,80790.63
2022-12-11T04:00:38.995Z,80786.66
2022-12-11T04:02:12.643Z,80786.66
2022-12-11T04:03:46.386Z,80788.66
2022-12-11T04:05:25.771Z,80786.66
2022-12-11T04:06:59.697Z,80786.66
2022-12-11T04:08:33.162Z,80782.72
2022-12-11T04:10:07.284Z,80776.78
2022-12-11T04:11:43.607Z,80782.72
2022-12-11T04:13:16.956Z,80776.78
2022-12-11T04:15:02.634Z,80774.78
2022-12-11T04:16:38.078Z,80762.91
2022-12-11T04:18:30.561Z,80766.88
2022-12-11T04:20:24.950Z,80758.97
2022-12-11T04:22:17.174Z,80758.97
2022-12-11T04:24:09.363Z,80758.97
2022-12-11T04:25:43.046Z,80790.63
2022-12-11T04:27:36.008Z,80739.16
2022-12-11T04:29:09.807Z,80741.13
2022-12-11T04:30:50.260Z,80741.13
2022-12-11T04:32:24.027Z,80741.13
2022-12-11T04:33:57.340Z,80741.13
2022-12-11T04:35:30.980Z,80743.13
2022-12-11T04:37:05.003Z,80741.13
2022-12-11T04:38:38.600Z,80739.16
2022-12-11T04:40:14.903Z,80727.28
2022-12-11T04:41:48.313Z,80719.38
2022-12-11T04:43:21.947Z,80719.38
2022-12-11T04:44:55.667Z,80711.44
2022-12-11T04:46:32.234Z,80711.44
2022-12-11T04:48:06.046Z,80679.78
2022-12-11T04:49:39.882Z,80652.06
2022-12-11T04:51:14.880Z,80632.28
2022-12-11T04:52:48.553Z,80616.44
2022-12-11T04:54:22.048Z,80606.53
2022-12-11T04:55:56.354Z,80580.81
2022-12-11T04:57:30.769Z,80529.34
2022-12-11T04:59:04.815Z,80428.41
2022-12-11T05:00:38.234Z,80359.13
2022-12-11T05:02:12.163Z,80335.38
2022-12-11T05:03:45.935Z,80315.59
2022-12-11T05:05:19.655Z,80287.88
2022-12-11T05:06:53.514Z,80283.91
2022-12-11T05:08:30.074Z,80270.06
2022-12-11T05:10:04.917Z,80242.34
2022-12-11T05:11:39.387Z,80258.19
2022-12-11T05:13:12.677Z,80279.97
2022-12-11T05:14:46.117Z,80303.72
2022-12-11T05:16:19.701Z,80289.84
2022-12-11T05:17:53.506Z,80276.00
2022-12-11T05:19:27.382Z,80311.63
2022-12-11T05:21:03.338Z,80309.66
2022-12-11T05:22:38.071Z,80283.91
2022-12-11T05:24:11.690Z,80295.78
2022-12-11T05:25:52.788Z,80313.59
2022-12-11T05:27:26.522Z,80264.13
2022-12-11T05:29:00.205Z,80232.44
2022-12-11T05:30:34.149Z,80220.56
2022-12-11T05:32:08.023Z,80173.09
2022-12-11T05:33:42.319Z,80149.34
2022-12-11T05:35:16.139Z,80133.50
2022-12-11T05:36:49.773Z,80080.06
2022-12-11T05:38:24.072Z,80050.38
2022-12-11T05:39:57.891Z,80034.53
2022-12-11T05:41:33.195Z,80066.22
2022-12-11T05:43:06.817Z,80078.09
2022-12-11T05:44:40.622Z,80109.75
2022-12-11T05:46:17.324Z,80095.91
2022-12-11T05:47:51.148Z,80105.78
2022-12-11T05:49:31.058Z,80127.56
2022-12-11T05:51:06.066Z,80153.28
2022-12-11T05:52:39.519Z,80169.13
2022-12-11T05:54:13.228Z,80194.84
2022-12-11T05:55:46.695Z,80200.78
2022-12-11T05:57:20.678Z,80202.78
2022-12-11T05:58:55.733Z,80184.97
2022-12-11T06:00:35.747Z,80184.97
2022-12-11T06:02:10.050Z,80173.09
2022-12-11T06:03:43.690Z,80161.22
2022-12-11T06:05:17.314Z,80161.22
2022-12-11T06:06:51.273Z,80087.97
2022-12-11T06:08:25.008Z,80084.03
2022-12-11T06:09:58.971Z,80117.66
2022-12-11T06:11:37.215Z,80119.63
2022-12-11T06:13:11.128Z,80097.88
2022-12-11T06:14:45.069Z,80058.28
2022-12-11T06:16:18.737Z,80084.03
2022-12-11T06:17:59.040Z,80097.88
2022-12-11T06:19:36.798Z,80125.59
2022-12-11T06:21:19.933Z,80095.91
2022-12-11T06:22:53.581Z,80109.75
2022-12-11T06:24:27.457Z,80086.00
2022-12-11T06:26:01.276Z,80111.72
2022-12-11T06:27:34.636Z,80131.50
2022-12-11T06:29:12.591Z,80173.09
2022-12-11T06:30:47.247Z,80161.22
2022-12-11T06:32:20.892Z,80202.78
2022-12-11T06:33:55.013Z,80177.03
2022-12-11T06:35:28.658Z,80194.84
2022-12-11T06:37:02.524Z,80202.78
2022-12-11T06:38:36.323Z,80214.66
2022-12-11T06:40:12.942Z,80208.72
2022-12-11T06:41:46.676Z,80222.56
2022-12-11T06:43:20.393Z,80200.78
2022-12-11T06:44:54.239Z,80240.38
2022-12-11T06:46:27.569Z,80238.41
2022-12-11T06:48:01.194Z,80238.41
2022-12-11T06:49:35.237Z,80214.66
2022-12-11T06:51:13.416Z,80216.63
2022-12-11T06:52:46.935Z,80220.56
2022-12-11T06:54:20.005Z,80216.63
2022-12-11T06:55:53.537Z,80204.75
2022-12-11T06:57:26.981Z,80212.66
2022-12-11T06:59:05.738Z,80190.88
2022-12-11T07:00:40.828Z,80173.09
2022-12-11T07:02:16.414Z,80137.47
2022-12-11T07:03:50.663Z,80117.66
2022-12-11T07:05:24.527Z,80121.63
2022-12-11T07:06:58.194Z,80119.63
2022-12-11T07:08:32.550Z,80101.84
2022-12-11T07:10:08.607Z,80149.34
2022-12-11T07:11:42.298Z,80121.63
2022-12-11T07:13:15.477Z,80147.34
2022-12-11T07:14:49.296Z,80113.72
2022-12-11T07:16:24.819Z,80107.75
2022-12-11T07:17:58.607Z,80143.38
2022-12-11T07:19:32.109Z,80101.84
2022-12-11T07:21:10.589Z,80123.59
2022-12-11T07:22:46.585Z,80129.53
2022-12-11T07:24:20.498Z,80113.72
2022-12-11T07:25:54.613Z,80101.84
2022-12-11T07:27:28.756Z,80119.63
2022-12-11T07:29:02.608Z,80117.66
2022-12-11T07:30:38.424Z,80099.84
2022-12-11T07:32:11.870Z,80097.88
2022-12-11T07:33:45.885Z,80093.91
2022-12-11T07:35:19.581Z,80087.97
2022-12-11T07:36:53.302Z,80109.75
2022-12-11T07:38:26.983Z,80074.13
2022-12-11T07:40:00.395Z,80070.16
2022-12-11T07:41:33.846Z,80060.28
2022-12-11T07:43:07.986Z,80068.19
2022-12-11T07:44:40.930Z,80089.97
2022-12-11T07:46:17.981Z,80101.84
2022-12-11T07:47:52.958Z,80111.72
2022-12-11T07:49:26.486Z,80101.84
2022-12-11T07:51:11.250Z,80123.59
2022-12-11T07:52:50.044Z,80113.72
2022-12-11T07:54:23.752Z,80121.63
2022-12-11T07:55:59.892Z,80093.91
2022-12-11T07:57:33.446Z,80101.84
2022-12-11T07:59:09.160Z,80084.03
2022-12-11T08:00:48.310Z,80062.25
2022-12-11T08:02:22.806Z,80044.44
2022-12-11T08:03:57.403Z,80058.28
2022-12-11T08:05:31.188Z,80093.91
2022-12-11T08:07:05.166Z,80089.97
2022-12-11T08:08:44.250Z,80115.69
2022-12-11T08:10:19.124Z,80093.91
2022-12-11T08:11:55.782Z,80078.09
2022-12-11T08:13:29.361Z,80082.03
2022-12-11T08:15:03.080Z,80091.94
2022-12-11T08:16:37.113Z,80149.34
2022-12-11T08:18:10.852Z,80149.34
2022-12-11T08:19:44.230Z,80141.41
2022-12-11T08:21:28.823Z,80157.25
2022-12-11T08:23:04.844Z,80147.34
2022-12-11T08:24:38.888Z,80133.50
2022-12-11T08:26:23.983Z,80141.41
2022-12-11T08:27:57.867Z,80137.47
2022-12-11T08:29:31.794Z,80131.50
2022-12-11T08:31:07.532Z,80107.75
2022-12-11T08:32:41.766Z,80105.78
2022-12-11T08:34:15.485Z,80091.94
2022-12-11T08:35:49.300Z,80101.84
2022-12-11T08:37:23.001Z,80078.09
2022-12-11T08:38:58.246Z,80078.09
2022-12-11T08:40:31.745Z,80086.00
2022-12-11T08:42:05.585Z,80080.06
2022-12-11T08:43:39.461Z,80066.22
2022-12-11T08:45:13.504Z,80072.16
2022-12-11T08:46:47.215Z,80086.00
2022-12-11T08:48:20.396Z,80086.00
2022-12-11T08:49:53.965Z,80082.03
2022-12-11T08:51:29.262Z,80105.78
2022-12-11T08:53:02.968Z,80082.03
2022-12-11T08:54:38.573Z,80097.88
2022-12-11T08:56:18.093Z,80099.84
2022-12-11T08:57:53.130Z,80101.84
2022-12-11T08:59:27.031Z,80133.50
2022-12-11T09:01:00.800Z,80095.91
2022-12-11T09:02:34.369Z,80093.91
2022-12-11T09:04:08.661Z,80099.84
2022-12-11T09:05:42.201Z,80109.75
2022-12-11T09:07:15.664Z,80093.91
2022-12-11T09:08:52.887Z,80105.78
2022-12-11T09:10:27.868Z,80074.13
2022-12-11T09:12:02.059Z,80113.72
2022-12-11T09:13:35.861Z,80095.91
2022-12-11T09:15:13.259Z,80113.72
2022-12-11T09:16:46.931Z,80097.88
2022-12-11T09:18:20.313Z,80097.88
2022-12-11T09:19:53.882Z,80093.91
2022-12-11T09:21:30.467Z,80095.91
2022-12-11T09:23:03.913Z,80074.13
2022-12-11T09:24:38.187Z,80082.03
2022-12-11T09:26:14.531Z,80070.16
2022-12-11T09:27:47.921Z,80076.09
2022-12-11T09:29:21.372Z,80080.06
2022-12-11T09:30:54.999Z,80086.00
2022-12-11T09:32:28.959Z,80078.09
2022-12-11T09:34:07.103Z,80078.09
2022-12-11T09:35:40.189Z,80070.16
2022-12-11T09:37:13.462Z,80093.91
2022-12-11T09:38:47.308Z,80086.00
2022-12-11T09:40:20.529Z,80086.00
2022-12-11T09:42:19.094Z,80089.97
2022-12-11T09:44:20.333Z,80109.75
2022-12-11T09:45:55.629Z,80137.47
2022-12-11T09:47:31.819Z,80135.47
2022-12-11T09:49:17.106Z,80133.50
2022-12-11T09:50:54.439Z,80157.25
2022-12-11T09:52:32.871Z,80141.41
2022-12-11T09:54:06.394Z,80157.25
2022-12-11T09:55:42.226Z,80157.25
2022-12-11T09:57:24.276Z,80111.72
2022-12-11T09:59:01.078Z,80145.38
2022-12-11T10:00:59.216Z,80149.34
2022-12-11T10:03:07.419Z,80186.94
2022-12-11T10:05:15.806Z,80196.84
2022-12-11T10:06:55.240Z,80188.91
2022-12-11T10:08:49.616Z,80200.78
2022-12-11T10:10:58.138Z,80214.66
2022-12-11T10:12:55.173Z,80224.53
2022-12-11T10:14:37.323Z,80230.47
2022-12-11T10:16:21.164Z,80242.34
2022-12-11T10:18:04.377Z,80250.28
2022-12-11T10:19:41.906Z,80270.06
2022-12-11T10:21:18.433Z,80260.16
2022-12-11T10:22:57.840Z,80272.03
2022-12-11T10:26:40.133Z,80277.97
2022-12-11T10:28:17.217Z,80283.91
2022-12-11T10:30:16.387Z,80285.91
2022-12-11T10:31:59.798Z,80287.88
2022-12-11T10:33:57.389Z,80283.91
2022-12-11T10:35:48.874Z,80321.53
2022-12-11T10:37:23.464Z,80295.78
2022-12-11T10:38:59.070Z,80287.88
2022-12-11T10:40:36.610Z,80279.97
2022-12-11T10:42:19.686Z,80270.06
2022-12-11T10:43:54.486Z,80283.91
2022-12-11T10:45:29.119Z,80281.94
2022-12-11T10:47:12.974Z,80279.97
2022-12-11T10:48:53.878Z,80279.97
2022-12-11T10:50:27.980Z,80283.91
2022-12-11T10:52:04.252Z,80307.66
2022-12-11T10:53:40.892Z,80293.81
2022-12-11T10:55:32.141Z,80297.78
2022-12-11T10:57:17.324Z,80301.72
2022-12-11T10:58:50.941Z,80303.72
2022-12-11T11:00:40.205Z,80295.78
2022-12-11T11:02:28.531Z,80291.84
2022-12-11T11:04:15.190Z,80299.75
2022-12-11T11:06:15.384Z,80299.75
2022-12-11T11:07:49.671Z,80303.72
2022-12-11T11:09:36.906Z,80301.72
2022-12-11T11:11:38.513Z,80301.72
2022-12-11T11:13:15.050Z,80325.47
2022-12-11T11:15:01.937Z,80299.75
2022-12-11T11:16:41.124Z,80297.78
2022-12-11T11:18:25.963Z,80301.72
2022-12-11T11:20:07.744Z,80305.69
2022-12-11T11:21:54.580Z,80303.72
2022-12-11T11:23:29.146Z,80359.13
2022-12-11T11:25:05.520Z,80315.59
2022-12-11T11:27:11.640Z,80319.53
2022-12-11T11:28:41.443Z,80315.59
2022-12-11T11:30:23.709Z,80315.59
2022-12-11T11:31:57.746Z,80333.41
2022-12-11T11:33:33.501Z,80333.41
2022-12-11T11:35:13.592Z,80339.34
2022-12-11T11:36:57.824Z,80339.34
2022-12-11T11:38:45.373Z,80365.06
2022-12-11T11:40:27.808Z,80343.28
2022-12-11T11:42:19.663Z,80347.25
2022-12-11T11:43:58.794Z,80359.13
2022-12-11T11:45:39.235Z,80367.03
2022-12-11T11:47:20.229Z,80374.97
2022-12-11T11:49:06.546Z,80376.94
2022-12-11T11:50:45.989Z,80382.88
2022-12-11T11:52:27.068Z,80374.97
2022-12-11T11:54:02.528Z,80388.81
2022-12-11T11:55:50.118Z,80390.78
2022-12-11T11:57:48.712Z,80394.75
2022-12-11T11:59:33.081Z,80394.75
2022-12-11T12:01:14.005Z,80400.69
2022-12-11T12:02:50.813Z,80402.66
2022-12-11T12:04:25.065Z,80396.72
2022-12-11T12:06:15.074Z,80394.75
2022-12-11T12:08:29.144Z,80396.72
2022-12-11T12:10:19.307Z,80394.75
2022-12-11T12:11:52.952Z,80394.75
2022-12-11T12:13:49.624Z,80402.66
2022-12-11T12:15:55.089Z,80367.03
2022-12-11T12:17:55.131Z,80384.84
2022-12-11T12:19:57.776Z,80388.81
2022-12-11T12:21:45.369Z,80382.88
2022-12-11T12:23:37.419Z,80382.88
2022-12-11T12:25:32.635Z,80386.84
2022-12-11T12:27:52.611Z,80386.84
2022-12-11T12:29:53.969Z,80388.81
2022-12-11T12:31:31.303Z,80386.84
2022-12-11T12:33:29.730Z,80378.91
2022-12-11T12:35:12.396Z,80386.84
2022-12-11T12:37:14.044Z,80394.75
2022-12-11T12:39:01.539Z,80394.75
2022-12-11T12:40:47.195Z,80394.75
2022-12-11T12:42:20.941Z,80400.69
2022-12-11T12:44:06.255Z,80394.75
2022-12-11T12:46:00.997Z,80394.75
2022-12-11T12:47:37.653Z,80386.84
2022-12-11T12:49:17.957Z,80388.81
2022-12-11T12:50:51.993Z,80444.22
2022-12-11T12:52:39.559Z,80390.78
2022-12-11T12:54:18.957Z,80392.78
2022-12-11T12:55:53.593Z,80392.78
2022-12-11T12:57:27.407Z,80398.72
2022-12-11T12:59:01.009Z,80394.75
2022-12-11T13:00:37.876Z,80382.88
2022-12-11T13:02:18.098Z,80430.38
2022-12-11T13:03:57.769Z,80382.88
2022-12-11T13:05:36.488Z,80380.91
2022-12-11T13:07:30.293Z,80374.97
2022-12-11T13:09:17.880Z,80374.97
2022-12-11T13:11:06.240Z,80378.91
2022-12-11T13:12:45.895Z,80376.94
2022-12-11T13:14:57.205Z,80386.84
2022-12-11T13:16:40.292Z,80396.72
2022-12-11T13:18:38.762Z,80404.66
2022-12-11T13:20:20.983Z,80402.66
2022-12-11T13:22:13.603Z,80416.53
2022-12-11T13:23:47.293Z,80414.53
2022-12-11T13:25:29.967Z,80420.47
2022-12-11T13:27:12.178Z,80412.56
2022-12-11T13:28:45.828Z,80414.53
2022-12-11T13:30:19.531Z,80406.63
2022-12-11T13:32:04.750Z,80406.63
2022-12-11T13:34:07.746Z,80422.47
2022-12-11T13:35:42.262Z,80414.53
2022-12-11T13:37:46.237Z,80418.50
2022-12-11T13:39:25.134Z,80426.41
2022-12-11T13:41:00.424Z,80424.44
2022-12-11T13:42:48.785Z,80446.22
2022-12-11T13:44:27.711Z,80418.50
2022-12-11T13:46:03.766Z,80440.28
2022-12-11T13:47:38.052Z,80430.38
2022-12-11T13:49:39.964Z,80424.44
2022-12-11T13:51:22.393Z,80446.22
2022-12-11T13:52:57.620Z,80422.47
2022-12-11T13:54:34.516Z,80426.41
2022-12-11T13:56:19.361Z,80430.38
2022-12-11T13:57:52.836Z,80446.22
2022-12-11T13:59:38.163Z,80438.28
2022-12-11T14:01:11.712Z,80442.25
2022-12-11T14:02:45.624Z,80446.22
2022-12-11T14:04:22.332Z,80446.22
2022-12-11T14:05:56.141Z,80454.13
2022-12-11T14:07:34.147Z,80446.22
2022-12-11T14:09:09.074Z,80448.19
2022-12-11T14:10:42.775Z,80458.09
2022-12-11T14:12:21.188Z,80452.16
2022-12-11T14:13:59.036Z,80452.16
2022-12-11T14:15:34.362Z,80446.22
2022-12-11T14:17:13.035Z,80448.19
2022-12-11T14:18:46.363Z,80456.13
2022-12-11T14:20:26.646Z,80438.28
2022-12-11T14:22:03.925Z,80456.13
2022-12-11T14:23:38.577Z,80422.47
2022-12-11T14:25:27.929Z,80428.41
2022-12-11T14:27:01.822Z,80422.47
2022-12-11T14:28:42.317Z,80468.00
2022-12-11T14:30:25.706Z,80426.41
2022-12-11T14:32:06.030Z,80424.44
2022-12-11T14:33:46.978Z,80426.41
2022-12-11T14:35:39.189Z,80416.53
2022-12-11T14:37:16.509Z,80404.66
2022-12-11T14:39:16.199Z,80394.75
2022-12-11T14:40:54.838Z,80408.59
2022-12-11T14:42:33.210Z,80384.84
2022-12-11T14:44:13.211Z,80406.63
2022-12-11T14:45:54.505Z,80396.72
2022-12-11T14:47:45.364Z,80386.84
2022-12-11T14:49:25.630Z,80394.75
2022-12-11T14:51:06.463Z,80384.84
2022-12-11T14:52:44.994Z,80388.81
2022-12-11T14:54:40.396Z,80386.84
2022-12-11T14:56:30.673Z,80378.91
2022-12-11T14:58:14.641Z,80382.88
2022-12-11T14:59:50.857Z,80382.88
2022-12-11T15:01:33.338Z,80394.75
2022-12-11T15:03:11.258Z,80388.81
2022-12-11T15:04:46.008Z,80390.78
2022-12-11T15:06:35.174Z,80426.41
2022-12-11T15:08:12.301Z,80390.78
2022-12-11T15:09:47.128Z,80380.91
2022-12-11T15:11:21.076Z,80382.88
2022-12-11T15:12:55.750Z,80390.78
2022-12-11T15:14:29.961Z,80388.81
2022-12-11T15:16:09.243Z,80386.84
2022-12-11T15:17:42.920Z,80384.84
2022-12-11T15:19:24.847Z,80386.84
2022-12-11T15:21:01.792Z,80382.88
2022-12-11T15:22:38.655Z,80396.72
2022-12-11T15:24:24.834Z,80386.84
2022-12-11T15:26:00.767Z,80384.84
2022-12-11T15:27:39.999Z,80392.78
2022-12-11T15:29:32.592Z,80398.72
2022-12-11T15:31:08.936Z,80390.78
2022-12-11T15:32:42.997Z,80402.66
2022-12-11T15:34:24.227Z,80418.50
2022-12-11T15:36:01.675Z,80426.41
2022-12-11T15:37:40.733Z,80400.69
2022-12-11T15:39:13.959Z,80406.63
2022-12-11T15:40:47.577Z,80406.63
2022-12-11T15:42:42.552Z,80402.66
2022-12-11T15:44:22.519Z,80422.47
2022-12-11T15:45:56.691Z,80398.72
2022-12-11T15:47:31.456Z,80398.72
2022-12-11T15:49:13.009Z,80390.78
2022-12-11T15:50:46.660Z,80390.78
2022-12-11T15:52:20.076Z,80386.84
2022-12-11T15:53:53.617Z,80390.78
2022-12-11T15:55:30.362Z,80390.78
2022-12-11T15:57:08.135Z,80388.81
2022-12-11T15:58:43.885Z,80390.78
2022-12-11T16:00:19.951Z,80394.75
2022-12-11T16:01:53.389Z,80384.84
2022-12-11T16:03:26.969Z,80386.84
2022-12-11T16:05:00.634Z,80378.91
2022-12-11T16:06:34.831Z,80382.88
2022-12-11T16:08:09.009Z,80384.84
2022-12-11T16:09:46.976Z,80372.97
2022-12-11T16:11:20.663Z,80374.97
2022-12-11T16:12:59.923Z,80372.97
2022-12-11T16:14:33.700Z,80378.91
2022-12-11T16:16:07.508Z,80359.13
2022-12-11T16:17:41.861Z,80374.97
2022-12-11T16:19:15.372Z,80355.16
2022-12-11T16:20:49.493Z,80353.19
2022-12-11T16:22:23.062Z,80367.03
2022-12-11T16:23:56.967Z,80355.16
2022-12-11T16:25:32.350Z,80371.00
2022-12-11T16:27:07.401Z,80363.09
2022-12-11T16:28:43.929Z,80363.09
2022-12-11T16:30:17.500Z,80371.00
2022-12-11T16:31:54.291Z,80363.09
2022-12-11T16:33:28.743Z,80371.00
2022-12-11T16:35:02.830Z,80369.03
2022-12-11T16:36:36.540Z,80371.00
2022-12-11T16:38:11.130Z,80378.91
2022-12-11T16:39:46.482Z,80378.91
2022-12-11T16:41:19.828Z,80390.78
2022-12-11T16:42:53.541Z,80378.91
2022-12-11T16:44:27.920Z,80430.38
2022-12-11T16:46:04.803Z,80380.91
2022-12-11T16:47:38.462Z,80378.91
2022-12-11T16:49:11.777Z,80382.88
2022-12-11T16:50:47.898Z,80388.81
2022-12-11T16:52:24.356Z,80384.84
2022-12-11T16:53:58.076Z,80390.78
2022-12-11T16:55:32.254Z,80386.84
2022-12-11T16:57:05.661Z,80386.84
2022-12-11T16:58:41.059Z,80382.88
2022-12-11T17:00:17.854Z,80390.78
2022-12-11T17:01:51.547Z,80369.03
2022-12-11T17:03:25.344Z,80374.97
2022-12-11T17:04:59.098Z,80374.97
2022-12-11T17:06:33.507Z,80361.09
2022-12-11T17:08:08.307Z,80363.09
2022-12-11T17:09:42.718Z,80359.13
2022-12-11T17:11:22.207Z,80355.16
2022-12-11T17:12:55.645Z,80355.16
2022-12-11T17:14:29.189Z,80355.16
2022-12-11T17:16:34.591Z,80349.22
2022-12-11T17:18:07.895Z,80363.09
2022-12-11T17:19:41.329Z,80339.34
2022-12-11T17:21:18.171Z,80343.28
2022-12-11T17:22:51.986Z,80343.28
2022-12-11T17:24:26.504Z,80353.19
2022-12-11T17:26:03.503Z,80355.16
2022-12-11T17:27:39.103Z,80349.22
2022-12-11T17:29:13.751Z,80359.13
2022-12-11T17:30:49.243Z,80359.13
2022-12-11T17:32:25.392Z,80357.16
2022-12-11T17:34:01.270Z,80359.13
2022-12-11T17:35:34.945Z,80361.09
2022-12-11T17:37:11.274Z,80349.22
2022-12-11T17:38:44.590Z,80357.16
2022-12-11T17:40:19.504Z,80361.09
2022-12-11T17:41:53.450Z,80359.13
2022-12-11T17:43:27.600Z,80363.09
2022-12-11T17:45:01.109Z,80349.22
2022-12-11T17:46:35.091Z,80357.16
2022-12-11T17:48:08.933Z,80359.13
2022-12-11T17:49:48.078Z,80361.09
2022-12-11T17:51:24.296Z,80345.28
2022-12-11T17:52:58.921Z,80349.22
2022-12-11T17:54:32.744Z,80351.22
2022-12-11T17:56:08.622Z,80349.22
2022-12-11T17:57:41.846Z,80359.13
2022-12-11T17:59:15.187Z,80357.16
2022-12-11T18:00:51.665Z,80363.09
2022-12-11T18:02:26.103Z,80353.19
2022-12-11T18:04:01.937Z,80351.22
2022-12-11T18:05:35.779Z,80353.19
2022-12-11T18:07:09.290Z,80357.16
2022-12-11T18:08:44.678Z,80359.13
2022-12-11T18:10:18.207Z,80353.19
2022-12-11T18:11:52.294Z,80359.13
2022-12-11T18:13:26.686Z,80355.16
2022-12-11T18:15:04.366Z,80369.03
2022-12-11T18:16:38.510Z,80365.06
2022-12-11T18:18:12.291Z,80382.88
2022-12-11T18:19:46.400Z,80363.09
2022-12-11T18:21:23.439Z,80359.13
2022-12-11T18:22:57.251Z,80355.16
2022-12-11T18:24:32.175Z,80363.09
2022-12-11T18:26:06.048Z,80351.22
2022-12-11T18:27:39.587Z,80353.19
2022-12-11T18:29:13.472Z,80347.25
2022-12-11T18:30:47.615Z,80323.50
2022-12-11T18:32:22.399Z,80331.41
2022-12-11T18:33:56.195Z,80359.13
2022-12-11T18:35:30.208Z,80339.34
2022-12-11T18:37:04.174Z,80337.34
2022-12-11T18:38:38.343Z,80341.31
2022-12-11T18:40:12.717Z,80331.41
2022-12-11T18:41:58.358Z,80331.41
2022-12-11T18:43:40.082Z,80333.41
2022-12-11T18:45:13.475Z,80347.25
2022-12-11T18:46:50.943Z,80337.34
2022-12-11T18:48:24.780Z,80337.34
2022-12-11T18:50:01.265Z,80345.28
2022-12-11T18:51:42.555Z,80331.41
2022-12-11T18:53:17.100Z,80337.34
2022-12-11T18:54:52.708Z,80337.34
2022-12-11T18:56:29.559Z,80347.25
2022-12-11T18:58:03.916Z,80351.22
2022-12-11T18:59:38.097Z,80349.22
2022-12-11T19:01:16.866Z,80347.25
2022-12-11T19:02:53.882Z,80347.25
2022-12-11T19:04:30.629Z,80347.25
2022-12-11T19:06:13.003Z,80339.34
2022-12-11T19:07:49.841Z,80347.25
2022-12-11T19:09:24.312Z,80378.91
2022-12-11T19:10:57.806Z,80349.22
2022-12-11T19:12:31.205Z,80343.28
2022-12-11T19:14:05.755Z,80339.34
2022-12-11T19:15:44.315Z,80335.38